createdAt,value
2022-12-28T00:01:27.223Z,81.11
2022-12-28T00:03:29.209Z,81.43
2022-12-28T00:05:31.120Z,81.35
2022-12-28T00:07:32.987Z,81.05
2022-12-28T00:09:35.866Z,81.05
2022-12-28T00:11:38.209Z,81.62
2022-12-28T00:13:40.159Z,81.26
2022-12-28T00:15:42.029Z,81.30
2022-12-28T00:17:43.902Z,81.77
2022-12-28T00:19:45.931Z,81.33
2022-12-28T00:21:47.977Z,81.23
2022-12-28T00:23:54.378Z,81.98
2022-12-28T00:26:10.423Z,81.49
2022-12-28T00:28:12.358Z,81.22
2022-12-28T00:30:14.498Z,81.12
2022-12-28T00:32:16.397Z,81.23
2022-12-28T00:34:18.295Z,81.86
2022-12-28T00:36:20.225Z,81.63
2022-12-28T00:38:22.440Z,81.02
2022-12-28T00:40:24.434Z,81.38
2022-12-28T00:42:27.366Z,81.73
2022-12-28T00:44:30.162Z,81.81
2022-12-28T00:46:33.035Z,82.04
2022-12-28T00:48:34.974Z,81.52
2022-12-28T00:50:36.932Z,82.22
2022-12-28T00:52:38.911Z,82.04
2022-12-28T00:54:41.828Z,81.66
2022-12-28T00:56:43.776Z,82.29
2022-12-28T00:58:45.885Z,81.89
2022-12-28T01:00:49.557Z,81.95
2022-12-28T01:02:51.686Z,82.25
2022-12-28T01:04:56.112Z,82.36
2022-12-28T01:06:58.998Z,82.49
2022-12-28T01:09:00.888Z,82.37
2022-12-28T01:11:12.309Z,82.91
2022-12-28T01:13:14.182Z,82.38
2022-12-28T01:15:16.163Z,82.38
2022-12-28T01:17:18.033Z,82.92
2022-12-28T01:19:23.401Z,82.95
2022-12-28T01:21:29.421Z,82.64
2022-12-28T01:23:31.279Z,83.06
2022-12-28T01:25:34.051Z,83.34
2022-12-28T01:27:36.012Z,83.42
2022-12-28T01:29:37.883Z,83.25
2022-12-28T01:31:39.820Z,83.25
2022-12-28T01:33:42.253Z,83.07
2022-12-28T01:35:44.076Z,83.13
2022-12-28T01:37:45.904Z,82.69
2022-12-28T01:39:47.849Z,82.95
2022-12-28T01:41:50.052Z,83.17
2022-12-28T01:43:54.972Z,83.25
2022-12-28T01:45:56.980Z,83.22
2022-12-28T01:47:58.973Z,83.10
2022-12-28T01:50:08.744Z,83.20
2022-12-28T01:52:20.000Z,82.99
2022-12-28T01:54:26.649Z,83.78
2022-12-28T01:56:31.670Z,83.55
2022-12-28T01:58:35.734Z,83.37
2022-12-28T02:00:37.757Z,83.37
2022-12-28T02:02:44.655Z,83.87
2022-12-28T02:04:47.775Z,83.15
2022-12-28T02:06:49.762Z,83.59
2022-12-28T02:09:19.775Z,83.93
2022-12-28T02:11:22.059Z,84.20
2022-12-28T02:13:25.664Z,83.49
2022-12-28T02:15:27.793Z,84.11
2022-12-28T02:17:30.030Z,84.55
2022-12-28T02:19:46.216Z,84.40
2022-12-28T02:22:01.181Z,84.72
2022-12-28T02:24:24.239Z,84.67
2022-12-28T02:26:52.576Z,85.14
2022-12-28T02:29:22.474Z,85.24
2022-12-28T02:31:39.947Z,85.53
2022-12-28T02:33:58.932Z,85.26
2022-12-28T02:36:18.251Z,85.45
2022-12-28T02:38:40.621Z,85.44
2022-12-28T02:41:14.289Z,85.51
2022-12-28T02:43:17.477Z,85.53
2022-12-28T02:45:56.314Z,86.02
2022-12-28T02:48:30.405Z,85.81
2022-12-28T02:50:46.102Z,86.02
2022-12-28T02:52:57.028Z,86.31
2022-12-28T02:55:38.744Z,86.30
2022-12-28T02:57:58.735Z,86.56
2022-12-28T03:00:18.170Z,86.42
2022-12-28T03:02:49.345Z,86.92
2022-12-28T03:05:02.275Z,86.71
2022-12-28T03:07:28.125Z,87.18
2022-12-28T03:09:44.826Z,87.48
2022-12-28T03:12:15.520Z,87.29
2022-12-28T03:14:24.979Z,87.43
2022-12-28T03:17:06.686Z,87.71
2022-12-28T03:19:29.455Z,87.66
2022-12-28T03:21:52.206Z,87.95
2022-12-28T03:24:15.437Z,87.99
2022-12-28T03:26:41.021Z,88.04
2022-12-28T03:29:03.106Z,88.15
2022-12-28T03:31:13.582Z,87.94
2022-12-28T03:33:15.680Z,88.49
2022-12-28T03:35:22.828Z,88.44
2022-12-28T03:37:43.598Z,88.62
2022-12-28T03:39:53.253Z,88.61
2022-12-28T03:42:24.951Z,88.95
2022-12-28T03:44:33.129Z,88.66
2022-12-28T03:46:46.619Z,88.98
2022-12-28T03:48:50.837Z,89.02
2022-12-28T03:50:55.212Z,89.15
2022-12-28T03:52:59.455Z,89.19
2022-12-28T03:55:01.437Z,89.34
2022-12-28T03:57:03.502Z,89.23
2022-12-28T03:59:05.369Z,89.67
2022-12-28T04:01:07.360Z,90.14
2022-12-28T04:03:09.372Z,90.05
2022-12-28T04:05:11.315Z,90.05
2022-12-28T04:07:13.208Z,90.42
2022-12-28T04:09:15.344Z,90.51
2022-12-28T04:11:18.248Z,90.81
2022-12-28T04:13:20.222Z,90.88
2022-12-28T04:15:22.041Z,90.92
2022-12-28T04:17:24.976Z,90.70
2022-12-28T04:19:26.898Z,91.10
2022-12-28T04:21:28.805Z,91.04
2022-12-28T04:23:31.977Z,91.04
2022-12-28T04:25:33.869Z,91.07
2022-12-28T04:27:35.708Z,91.16
2022-12-28T04:29:37.629Z,91.31
2022-12-28T04:31:39.567Z,91.21
2022-12-28T04:33:41.516Z,91.29
2022-12-28T04:35:44.389Z,91.21
2022-12-28T04:37:47.437Z,91.22
2022-12-28T04:39:55.272Z,91.24
2022-12-28T04:41:59.086Z,90.75
2022-12-28T04:44:01.063Z,90.64
2022-12-28T04:46:05.867Z,90.68
2022-12-28T04:48:07.877Z,90.71
2022-12-28T04:50:10.869Z,90.46
2022-12-28T04:52:12.903Z,90.58
2022-12-28T04:54:15.807Z,90.89
2022-12-28T04:56:19.873Z,90.56
2022-12-28T04:58:21.719Z,90.73
2022-12-28T05:00:23.647Z,90.56
2022-12-28T05:02:26.588Z,90.71
2022-12-28T05:04:29.600Z,90.98
2022-12-28T05:06:31.585Z,90.85
2022-12-28T05:08:35.362Z,91.31
2022-12-28T05:10:38.238Z,91.00
2022-12-28T05:12:40.162Z,90.75
2022-12-28T05:14:42.469Z,90.96
2022-12-28T05:16:44.382Z,91.30
2022-12-28T05:18:46.350Z,91.36
2022-12-28T05:20:48.318Z,91.52
2022-12-28T05:22:50.252Z,91.65
2022-12-28T05:24:52.131Z,91.46
2022-12-28T05:26:55.295Z,91.46
2022-12-28T05:28:57.480Z,91.43
2022-12-28T05:31:05.279Z,91.50
2022-12-28T05:33:07.203Z,91.31
2022-12-28T05:35:09.732Z,91.31
2022-12-28T05:37:15.731Z,91.45
2022-12-28T05:39:22.129Z,91.74
2022-12-28T05:41:28.663Z,91.07
2022-12-28T05:43:30.708Z,91.42
2022-12-28T05:45:32.938Z,90.66
2022-12-28T05:47:34.857Z,91.10
2022-12-28T05:49:36.670Z,91.31
2022-12-28T05:51:40.151Z,91.03
2022-12-28T05:53:42.957Z,91.20
2022-12-28T05:55:44.898Z,90.97
2022-12-28T05:57:46.856Z,91.27
2022-12-28T05:59:48.772Z,91.08
2022-12-28T06:01:50.974Z,91.14
2022-12-28T06:03:57.439Z,91.39
2022-12-28T06:06:11.048Z,91.44
2022-12-28T06:08:16.060Z,91.24
2022-12-28T06:10:20.197Z,91.46
2022-12-28T06:12:22.109Z,91.39
2022-12-28T06:14:24.138Z,91.19
2022-12-28T06:16:31.535Z,91.34
2022-12-28T06:18:34.141Z,91.07
2022-12-28T06:20:35.965Z,90.90
2022-12-28T06:22:37.930Z,90.89
2022-12-28T06:24:40.832Z,90.86
2022-12-28T06:26:42.955Z,90.65
2022-12-28T06:28:45.789Z,90.55
2022-12-28T06:30:52.320Z,90.57
2022-12-28T06:32:57.094Z,90.51
2022-12-28T06:34:59.962Z,90.19
2022-12-28T06:37:04.412Z,90.14
2022-12-28T06:39:09.262Z,90.66
2022-12-28T06:41:15.115Z,90.19
2022-12-28T06:43:18.274Z,90.93
2022-12-28T06:45:20.254Z,90.32
2022-12-28T06:47:22.201Z,90.08
2022-12-28T06:49:26.123Z,90.11
2022-12-28T06:51:30.427Z,90.16
2022-12-28T06:53:35.330Z,90.06
2022-12-28T06:55:37.324Z,90.18
2022-12-28T06:57:39.292Z,90.13
2022-12-28T06:59:41.260Z,90.02
2022-12-28T07:01:46.973Z,90.24
2022-12-28T07:03:51.419Z,90.19
2022-12-28T07:05:53.336Z,90.03
2022-12-28T07:07:56.258Z,90.22
2022-12-28T07:10:00.178Z,90.11
2022-12-28T07:12:02.144Z,90.43
2022-12-28T07:14:06.225Z,90.25
2022-12-28T07:16:12.030Z,89.75
2022-12-28T07:18:15.068Z,89.67
2022-12-28T07:20:17.171Z,89.61
2022-12-28T07:22:19.079Z,89.28
2022-12-28T07:24:23.069Z,89.30
2022-12-28T07:26:28.205Z,89.19
2022-12-28T07:28:30.171Z,89.42
2022-12-28T07:30:32.177Z,89.57
2022-12-28T07:32:37.434Z,89.15
2022-12-28T07:34:39.416Z,89.14
2022-12-28T07:36:41.655Z,89.44
2022-12-28T07:38:44.393Z,89.06
2022-12-28T07:40:47.313Z,88.94
2022-12-28T07:42:49.254Z,88.88
2022-12-28T07:44:51.269Z,88.59
2022-12-28T07:46:54.156Z,88.78
2022-12-28T07:48:57.353Z,88.39
2022-12-28T07:51:16.438Z,88.53
2022-12-28T07:53:22.044Z,87.72
2022-12-28T07:55:25.128Z,87.89
2022-12-28T07:57:27.072Z,87.56
2022-12-28T07:59:31.152Z,87.21
2022-12-28T08:01:35.727Z,87.51
2022-12-28T08:03:38.539Z,87.50
2022-12-28T08:05:40.530Z,87.53
2022-12-28T08:07:42.419Z,87.50
2022-12-28T08:09:44.399Z,87.96
2022-12-28T08:11:49.065Z,87.14
2022-12-28T08:13:53.665Z,86.56
2022-12-28T08:15:57.956Z,86.48
2022-12-28T08:18:00.932Z,86.44
2022-12-28T08:20:03.206Z,86.13
2022-12-28T08:22:05.275Z,86.62
2022-12-28T08:24:09.086Z,86.44
2022-12-28T08:26:19.751Z,85.41
2022-12-28T08:28:21.814Z,85.27
2022-12-28T08:30:23.699Z,85.10
2022-12-28T08:32:25.625Z,84.55
2022-12-28T08:34:27.680Z,84.77
2022-12-28T08:36:30.339Z,83.99
2022-12-28T08:38:33.260Z,83.36
2022-12-28T08:40:35.202Z,83.11
2022-12-28T08:42:37.067Z,82.38
2022-12-28T08:44:38.930Z,82.87
2022-12-28T08:46:41.539Z,81.51
2022-12-28T08:48:44.287Z,81.78
2022-12-28T08:50:46.239Z,80.29
2022-12-28T08:52:48.256Z,79.77
2022-12-28T08:54:50.344Z,78.79
2022-12-28T08:56:53.692Z,78.72
2022-12-28T08:58:57.828Z,78.35
2022-12-28T09:01:20.191Z,77.21
2022-12-28T09:03:22.201Z,76.73
2022-12-28T09:05:24.073Z,76.59
2022-12-28T09:07:25.985Z,76.72
2022-12-28T09:09:29.957Z,76.98
2022-12-28T09:11:31.878Z,76.44
2022-12-28T09:13:36.965Z,76.43
2022-12-28T09:15:39.975Z,77.26
2022-12-28T09:17:42.004Z,77.21
2022-12-28T09:19:43.942Z,76.51
2022-12-28T09:21:49.249Z,76.01
2022-12-28T09:23:52.580Z,76.19
2022-12-28T09:25:55.520Z,76.52
2022-12-28T09:27:59.453Z,75.71
2022-12-28T09:30:01.691Z,75.40
2022-12-28T09:32:03.735Z,74.67
2022-12-28T09:36:37.321Z,74.24
2022-12-28T09:38:39.282Z,74.20
2022-12-28T09:40:41.534Z,74.14
2022-12-28T09:42:43.961Z,73.49
2022-12-28T09:44:57.622Z,72.66
2022-12-28T09:47:10.552Z,73.09
2022-12-28T09:49:16.778Z,73.30
2022-12-28T09:51:24.432Z,73.39
2022-12-28T09:53:34.870Z,72.02
2022-12-28T09:55:40.272Z,71.91
2022-12-28T09:57:49.168Z,71.84
2022-12-28T09:59:53.545Z,71.30
2022-12-28T10:01:59.255Z,72.18
2022-12-28T10:04:02.434Z,71.27
2022-12-28T10:06:12.500Z,69.81
2022-12-28T10:08:19.382Z,69.86
2022-12-28T10:10:23.922Z,69.45
2022-12-28T10:12:30.286Z,69.44
2022-12-28T10:14:36.045Z,69.18
2022-12-28T10:16:42.847Z,69.32
2022-12-28T10:18:50.562Z,68.31
2022-12-28T10:20:55.239Z,67.99
2022-12-28T10:22:59.738Z,69.87
2022-12-28T10:25:01.657Z,68.63
2022-12-28T10:27:06.853Z,69.29
2022-12-28T10:29:15.186Z,68.53
2022-12-28T10:31:34.099Z,69.34
2022-12-28T10:33:41.786Z,69.20
2022-12-28T10:35:50.709Z,69.09
2022-12-28T10:38:00.073Z,69.73
2022-12-28T10:40:07.019Z,70.01
2022-12-28T10:42:21.132Z,68.86
2022-12-28T10:44:39.352Z,69.75
2022-12-28T10:46:56.541Z,69.24
2022-12-28T10:49:03.582Z,69.41
2022-12-28T10:51:16.267Z,69.34
2022-12-28T10:53:40.620Z,69.58
2022-12-28T10:55:43.637Z,68.23
2022-12-28T10:58:18.993Z,68.75
2022-12-28T11:00:23.370Z,68.38
2022-12-28T11:02:30.492Z,67.43
2022-12-28T11:04:32.544Z,68.57
2022-12-28T11:06:37.160Z,68.52
2022-12-28T11:08:40.035Z,68.50
2022-12-28T11:10:42.155Z,69.08
2022-12-28T11:12:45.712Z,70.24
2022-12-28T11:14:48.933Z,69.62
2022-12-28T11:16:53.481Z,70.13
2022-12-28T11:18:57.676Z,69.53
2022-12-28T11:20:59.664Z,69.57
2022-12-28T11:23:06.997Z,69.66
2022-12-28T11:25:09.448Z,69.31
2022-12-28T11:27:16.551Z,70.52
2022-12-28T11:29:20.672Z,70.63
2022-12-28T11:31:31.376Z,70.75
2022-12-28T11:33:42.534Z,71.79
2022-12-28T11:35:57.499Z,71.48
2022-12-28T11:38:03.962Z,70.17
2022-12-28T11:40:06.438Z,70.12
2022-12-28T11:44:31.108Z,70.52
2022-12-28T11:46:40.713Z,70.71
2022-12-28T11:48:42.695Z,70.74
2022-12-28T11:50:53.114Z,69.99
2022-12-28T11:52:55.066Z,69.60
2022-12-28T11:55:03.064Z,70.59
2022-12-28T11:57:05.724Z,69.91
2022-12-28T11:59:23.964Z,70.80
2022-12-28T12:01:30.015Z,69.85
2022-12-28T12:03:59.577Z,70.91
2022-12-28T12:06:01.520Z,71.42
2022-12-28T12:08:16.759Z,69.62
2022-12-28T12:10:30.776Z,70.34
2022-12-28T12:12:35.986Z,70.04
2022-12-28T12:14:45.969Z,69.57
2022-12-28T12:17:10.109Z,69.92
2022-12-28T12:19:24.012Z,69.99
2022-12-28T12:21:46.075Z,69.56
2022-12-28T12:23:57.037Z,69.74
2022-12-28T12:26:10.786Z,70.22
2022-12-28T12:28:33.729Z,69.34
2022-12-28T12:30:36.614Z,69.09
2022-12-28T12:33:02.526Z,69.37
2022-12-28T12:35:07.755Z,69.32
2022-12-28T12:37:43.663Z,69.47
2022-12-28T12:39:48.551Z,68.66
2022-12-28T12:42:04.768Z,69.54
2022-12-28T12:44:06.662Z,68.99
2022-12-28T12:46:39.360Z,69.84
2022-12-28T12:49:15.879Z,69.49
2022-12-28T12:51:37.567Z,68.14
2022-12-28T12:53:51.142Z,68.72
2022-12-28T12:56:12.187Z,68.71
2022-12-28T12:58:22.023Z,68.13
2022-12-28T13:00:24.730Z,68.90
2022-12-28T13:02:45.569Z,69.02
2022-12-28T13:04:49.462Z,68.41
2022-12-28T13:06:59.439Z,68.61
2022-12-28T13:09:05.890Z,67.98
2022-12-28T13:11:15.446Z,68.66
2022-12-28T13:13:33.523Z,68.34
2022-12-28T13:15:36.827Z,69.02
2022-12-28T13:17:38.841Z,68.42
2022-12-28T13:19:40.890Z,69.30
2022-12-28T13:21:45.859Z,68.14
2022-12-28T13:23:48.952Z,68.02
2022-12-28T13:25:55.191Z,68.03
2022-12-28T13:28:03.118Z,69.11
2022-12-28T13:30:18.267Z,68.91
2022-12-28T13:32:38.724Z,69.18
2022-12-28T13:34:49.710Z,68.30
2022-12-28T13:37:00.752Z,68.74
2022-12-28T13:39:10.710Z,69.61
2022-12-28T13:41:26.042Z,69.46
2022-12-28T13:44:01.512Z,69.47
2022-12-28T13:46:09.267Z,70.34
2022-12-28T13:48:11.863Z,70.23
2022-12-28T13:50:18.669Z,70.15
2022-12-28T13:52:52.517Z,69.46
2022-12-28T13:54:59.142Z,69.44
2022-12-28T13:57:28.331Z,70.36
2022-12-28T13:59:23.945Z,69.61
2022-12-28T14:01:32.306Z,69.79
2022-12-28T14:03:41.413Z,70.45
2022-12-28T14:05:50.905Z,69.96
2022-12-28T14:07:55.200Z,69.99
2022-12-28T14:09:57.559Z,69.72
2022-12-28T14:12:00.707Z,70.14
2022-12-28T14:14:04.213Z,70.35
2022-12-28T14:16:07.771Z,70.32
2022-12-28T14:18:15.313Z,70.22
2022-12-28T14:20:18.466Z,69.89
2022-12-28T14:22:37.815Z,70.00
2022-12-28T14:25:04.404Z,69.83
2022-12-28T14:27:06.375Z,69.98
2022-12-28T14:29:21.533Z,70.40
2022-12-28T14:31:32.387Z,70.98
2022-12-28T14:33:50.641Z,71.28
2022-12-28T14:35:58.274Z,70.71
2022-12-28T14:38:01.201Z,70.26
2022-12-28T14:40:05.563Z,70.83
2022-12-28T14:42:20.570Z,70.67
2022-12-28T14:44:36.858Z,70.71
2022-12-28T14:46:41.464Z,70.76
2022-12-28T14:48:45.188Z,70.68
2022-12-28T14:50:59.280Z,70.15
2022-12-28T14:53:21.439Z,70.31
2022-12-28T14:55:33.427Z,70.57
2022-12-28T14:57:44.476Z,70.59
2022-12-28T15:00:11.134Z,70.56
2022-12-28T15:02:52.077Z,70.22
2022-12-28T15:05:00.435Z,70.69
2022-12-28T15:07:04.683Z,70.37
2022-12-28T15:09:08.626Z,70.03
2022-12-28T15:11:14.480Z,70.90
2022-12-28T15:13:18.061Z,71.13
2022-12-28T15:15:20.875Z,71.24
2022-12-28T15:17:26.791Z,71.28
2022-12-28T15:19:31.744Z,70.89
2022-12-28T15:21:33.691Z,70.34
2022-12-28T15:23:35.726Z,70.08
2022-12-28T15:25:37.739Z,70.44
2022-12-28T15:27:40.657Z,70.33
2022-12-28T15:32:04.964Z,70.36
2022-12-28T15:34:07.953Z,69.68
2022-12-28T15:36:21.443Z,70.44
2022-12-28T15:38:23.377Z,70.62
2022-12-28T15:40:25.351Z,70.83
2022-12-28T15:42:27.584Z,69.72
2022-12-28T15:44:29.644Z,70.07
2022-12-28T15:46:32.035Z,69.91
2022-12-28T15:48:35.272Z,70.07
2022-12-28T15:50:37.223Z,70.26
2022-12-28T15:52:39.265Z,69.62
2022-12-28T15:54:46.750Z,69.53
2022-12-28T15:56:54.482Z,68.88
2022-12-28T15:58:58.786Z,69.42
2022-12-28T16:01:01.013Z,69.43
2022-12-28T16:03:03.441Z,70.21
2022-12-28T16:05:07.027Z,70.05
2022-12-28T16:07:10.180Z,69.20
2022-12-28T16:09:13.369Z,70.26
2022-12-28T16:11:17.860Z,69.19
2022-12-28T16:13:19.861Z,69.27
2022-12-28T16:15:22.945Z,69.65
2022-12-28T16:17:24.929Z,69.64
2022-12-28T16:19:26.914Z,69.93
2022-12-28T16:21:29.870Z,69.66
2022-12-28T16:23:33.853Z,68.74
2022-12-28T16:25:37.962Z,69.37
2022-12-28T16:27:39.927Z,69.04
2022-12-28T16:29:42.055Z,68.75
2022-12-28T16:31:45.278Z,69.55
2022-12-28T16:33:47.258Z,68.71
2022-12-28T16:35:51.884Z,68.47
2022-12-28T16:37:57.911Z,68.63
2022-12-28T16:40:00.001Z,69.33
2022-12-28T16:42:02.024Z,68.86
2022-12-28T16:44:12.515Z,68.18
2022-12-28T16:46:14.918Z,68.10
2022-12-28T16:48:17.092Z,68.57
2022-12-28T16:50:19.068Z,69.12
2022-12-28T16:52:21.039Z,68.14
2022-12-28T16:54:26.404Z,68.82
2022-12-28T16:56:28.381Z,68.54
2022-12-28T16:58:36.457Z,68.61
2022-12-28T17:00:38.443Z,68.77
2022-12-28T17:02:41.457Z,69.38
2022-12-28T17:04:44.175Z,68.16
2022-12-28T17:06:47.056Z,68.59
2022-12-28T17:08:50.966Z,68.72
2022-12-28T17:10:53.002Z,68.13
2022-12-28T17:12:54.933Z,67.64
2022-12-28T17:15:03.219Z,68.10
2022-12-28T17:17:08.248Z,69.02
2022-12-28T17:19:12.350Z,68.80
2022-12-28T17:21:15.395Z,68.68
2022-12-28T17:23:18.354Z,68.00
2022-12-28T17:25:21.396Z,66.94
2022-12-28T17:27:23.309Z,67.52
2022-12-28T17:29:25.262Z,67.68
2022-12-28T17:31:29.333Z,67.29
2022-12-28T17:33:37.111Z,67.32
2022-12-28T17:35:41.512Z,67.61
2022-12-28T17:37:46.804Z,67.87
2022-12-28T17:39:48.850Z,67.09
2022-12-28T17:41:50.890Z,67.34
2022-12-28T17:43:56.784Z,67.41
2022-12-28T17:46:01.869Z,67.10
2022-12-28T17:48:04.632Z,67.60
2022-12-28T17:50:07.547Z,67.26
2022-12-28T17:52:09.549Z,68.03
2022-12-28T17:54:14.569Z,67.15
2022-12-28T17:56:16.943Z,67.56
2022-12-28T17:58:18.926Z,67.15
2022-12-28T18:00:22.199Z,67.17
2022-12-28T18:02:24.524Z,67.02
2022-12-28T18:04:26.946Z,67.95
2022-12-28T18:06:29.092Z,67.20
2022-12-28T18:08:31.283Z,67.36
2022-12-28T18:10:34.473Z,68.12
2022-12-28T18:12:36.511Z,67.72
2022-12-28T18:14:38.556Z,67.22
2022-12-28T18:16:40.739Z,67.57
2022-12-28T18:18:43.454Z,67.69
2022-12-28T18:20:46.209Z,67.53
2022-12-28T18:22:50.255Z,67.25
2022-12-28T18:24:53.865Z,67.09
2022-12-28T18:26:55.936Z,67.61
2022-12-28T18:28:58.290Z,68.16
2022-12-28T18:31:02.782Z,67.42
2022-12-28T18:33:05.085Z,68.35
2022-12-28T18:35:08.053Z,68.53
2022-12-28T18:37:16.123Z,68.20
2022-12-28T18:39:18.380Z,67.81
2022-12-28T18:41:21.547Z,67.42
2022-12-28T18:43:24.338Z,68.39
2022-12-28T18:45:26.369Z,68.29
2022-12-28T18:47:33.159Z,68.40
2022-12-28T18:49:40.186Z,67.82
2022-12-28T18:51:44.929Z,68.41
2022-12-28T18:53:47.580Z,68.96
2022-12-28T18:56:04.269Z,69.21
2022-12-28T18:58:07.587Z,69.08
2022-12-28T19:00:14.341Z,69.11
2022-12-28T19:02:19.773Z,68.50
2022-12-28T19:04:22.566Z,69.13
2022-12-28T19:06:26.918Z,69.05
2022-12-28T19:08:29.159Z,68.37
2022-12-28T19:10:31.210Z,68.77
2022-12-28T19:12:33.522Z,68.72
2022-12-28T19:14:36.981Z,68.78
2022-12-28T19:16:40.092Z,68.45
2022-12-28T19:18:42.179Z,68.55
2022-12-28T19:20:44.838Z,68.64
2022-12-28T19:22:47.535Z,68.71
2022-12-28T19:24:49.656Z,68.04
2022-12-28T19:26:53.584Z,68.22
2022-12-28T19:28:55.916Z,68.50
2022-12-28T19:31:04.811Z,68.79
2022-12-28T19:33:07.681Z,68.15
2022-12-28T19:35:09.983Z,68.65
2022-12-28T19:37:11.975Z,68.12
2022-12-28T19:39:15.396Z,68.49
2022-12-28T19:41:19.189Z,68.51
2022-12-28T19:43:21.773Z,68.53
2022-12-28T19:45:24.883Z,68.94
2022-12-28T19:47:28.088Z,68.75
2022-12-28T19:49:30.372Z,69.33
2022-12-28T19:51:34.498Z,68.77
2022-12-28T19:53:37.579Z,69.03
2022-12-28T19:55:40.880Z,68.70
2022-12-28T19:57:43.249Z,68.83
2022-12-28T19:59:47.083Z,69.56
2022-12-28T20:01:49.860Z,68.60
2022-12-28T20:04:00.231Z,69.33
2022-12-28T20:06:18.416Z,69.06
2022-12-28T20:08:20.350Z,69.41
2022-12-28T20:10:23.601Z,69.67
2022-12-28T20:12:25.775Z,69.85
2022-12-28T20:14:28.480Z,69.95
2022-12-28T20:16:35.005Z,69.32
2022-12-28T20:18:37.034Z,69.49
2022-12-28T20:21:09.286Z,69.49
2022-12-28T20:23:02.558Z,69.88
2022-12-28T20:25:14.942Z,69.96
2022-12-28T20:27:16.841Z,69.44
2022-12-28T20:29:19.860Z,70.20
2022-12-28T20:31:23.829Z,69.87
2022-12-28T20:33:25.933Z,70.74
2022-12-28T20:35:30.132Z,70.69
2022-12-28T20:37:32.377Z,71.24
2022-12-28T20:39:35.557Z,71.49
2022-12-28T20:41:56.599Z,70.79
2022-12-28T20:44:05.681Z,71.98
2022-12-28T20:46:12.233Z,71.57
2022-12-28T20:48:16.602Z,71.25
2022-12-28T20:50:19.037Z,71.30
2022-12-28T20:52:21.142Z,71.34
2022-12-28T20:54:24.115Z,70.90
2022-12-28T20:56:27.553Z,70.87
2022-12-28T20:58:29.677Z,71.44
2022-12-28T21:00:39.756Z,71.07
2022-12-28T21:02:42.099Z,71.67
2022-12-28T21:04:44.319Z,71.54
2022-12-28T21:06:46.322Z,71.69
2022-12-28T21:08:48.707Z,71.44
2022-12-28T21:10:51.868Z,71.17
2022-12-28T21:12:55.105Z,70.82
2022-12-28T21:14:58.043Z,70.84
2022-12-28T21:17:11.809Z,70.97
2022-12-28T21:20:11.386Z,71.66
2022-12-28T21:25:04.425Z,70.82
2022-12-28T21:27:26.609Z,70.73
2022-12-28T21:29:31.201Z,71.24
2022-12-28T21:31:33.353Z,71.12
2022-12-28T21:33:41.544Z,71.09
2022-12-28T21:35:44.560Z,71.41
2022-12-28T21:37:46.502Z,71.52
2022-12-28T21:39:49.468Z,71.37
2022-12-28T21:41:51.562Z,71.60
2022-12-28T21:43:53.492Z,71.24
2022-12-28T21:46:02.618Z,71.87
2022-12-28T21:48:05.158Z,71.69
2022-12-28T21:50:09.137Z,71.29
2022-12-28T21:52:11.057Z,71.56
2022-12-28T21:54:24.986Z,71.45
2022-12-28T21:56:27.861Z,71.76
2022-12-28T21:58:29.854Z,71.88
2022-12-28T22:00:54.095Z,71.52
2022-12-28T22:03:17.980Z,71.12
2022-12-28T22:05:38.795Z,71.00
2022-12-28T22:07:44.469Z,71.76
2022-12-28T22:10:08.942Z,71.29
2022-12-28T22:12:33.150Z,71.61
2022-12-28T22:14:36.148Z,71.82
2022-12-28T22:16:38.133Z,70.71
2022-12-28T22:21:05.448Z,71.49
2022-12-28T22:23:09.023Z,72.51
2022-12-28T22:25:15.804Z,71.25
2022-12-28T22:27:17.758Z,70.84
2022-12-28T22:29:24.418Z,71.08
2022-12-28T22:31:26.497Z,71.26
2022-12-28T22:33:28.569Z,71.69
2022-12-28T22:35:30.561Z,70.67
2022-12-28T22:37:34.523Z,70.92
2022-12-28T22:39:39.982Z,71.44
2022-12-28T22:41:45.062Z,71.52
2022-12-28T22:43:53.918Z,71.62
2022-12-28T22:46:02.422Z,71.81
2022-12-28T22:48:04.618Z,71.43
2022-12-28T22:50:08.259Z,71.00
2022-12-28T22:52:10.217Z,71.22
2022-12-28T22:54:12.296Z,71.40
2022-12-28T22:56:21.062Z,71.29
2022-12-28T22:58:23.247Z,70.35
2022-12-28T23:00:25.279Z,70.69
2022-12-28T23:02:29.651Z,70.69
2022-12-28T23:04:37.767Z,71.19
2022-12-28T23:06:39.693Z,70.59
2022-12-28T23:08:41.944Z,70.44
2022-12-28T23:11:31.821Z,70.97
2022-12-28T23:13:33.717Z,70.73
2022-12-28T23:15:35.585Z,70.81
2022-12-28T23:17:37.566Z,70.88
2022-12-28T23:19:58.324Z,71.11
2022-12-28T23:22:19.089Z,71.34
2022-12-28T23:24:40.714Z,71.72
2022-12-28T23:27:01.275Z,70.55
2022-12-28T23:29:03.399Z,70.74
2022-12-28T23:31:05.707Z,69.71
2022-12-28T23:33:09.226Z,70.10
2022-12-28T23:35:11.177Z,70.82
2022-12-28T23:37:14.157Z,70.46
2022-12-28T23:39:16.474Z,70.11
2022-12-28T23:41:36.907Z,69.63
2022-12-28T23:43:40.925Z,69.94
2022-12-28T23:45:42.891Z,69.65
2022-12-28T23:47:45.517Z,70.01
2022-12-28T23:49:48.537Z,70.03
2022-12-28T23:51:51.499Z,69.92
2022-12-28T23:53:53.549Z,70.05
2022-12-28T23:55:58.483Z,70.33
2022-12-28T23:58:00.379Z,69.88
